»·PEaware :: AAL1097 KSAN-KPHX

AAL1097 :: KSAN-KPHX

FLIGHT INFORMATION

Flight Status: Arrived
Operator:
American Airlines
More flights by this operator :: More flights under this callsign
Pilot: Adam A. (5112)
Aircraft: BOEING 767-300
(B763)
More flights by this aircraft type
Origin: KSAN San Diego Intl-Lindbergh
United States
Destination: KPHX Phoenix Sky Harbor Intl
United States
More flights between these airports :: More routes between these airports
Route: POGGI5 IPL J18 BZA HOGGZ HYDRR1
File this flight plan on PilotEdge
Remarks:
Altitude:
(Current/Filed)
27,000ft
Speed:
(Current/Filed)
450kts
Departed: 21-Feb-16 02:27 PM
Arrived: 21-Feb-16 03:23 PM
Distance/Time
Traveled:
263nm/0:56
Distance/Time
To Go:
Arrived

Flight Plot

Page will automatically refresh every two minutes.


Map Options




Map Legend


Flown Route
Filed Route
Departure Airport
Arrival Airport
Navaid (VOR, NDB)
Fix

Horizontal Profiles

Position Reports

Time Latitude Longitude Heading Altitude Ground
Speed
21-Feb-16 13:29 32.734215 -117.204821 112 28ft 0kts
21-Feb-16 13:30 32.734215 -117.204821 112 28ft 0kts
21-Feb-16 13:31 32.734215 -117.204821 112 28ft 0kts
21-Feb-16 13:32 32.734215 -117.204821 112 28ft 0kts
21-Feb-16 13:33 32.734215 -117.204821 112 28ft 0kts
21-Feb-16 13:34 32.734215 -117.204821 112 28ft 0kts
21-Feb-16 13:35 32.734215 -117.204821 112 28ft 0kts
21-Feb-16 13:36 32.734215 -117.204821 112 28ft 0kts
21-Feb-16 13:37 32.734215 -117.204821 112 28ft 0kts
21-Feb-16 13:38 32.734215 -117.204821 112 28ft 0kts
21-Feb-16 13:39 32.734215 -117.204821 112 28ft 0kts
21-Feb-16 13:40 32.734215 -117.204821 112 28ft 0kts
21-Feb-16 13:41 32.734215 -117.204821 112 28ft 0kts
21-Feb-16 13:42 32.734215 -117.204821 112 28ft 0kts
21-Feb-16 13:43 32.734215 -117.204821 112 28ft 0kts
21-Feb-16 13:44 32.734215 -117.204821 112 28ft 0kts
21-Feb-16 13:45 32.734215 -117.204821 112 28ft 0kts
21-Feb-16 13:46 32.734215 -117.204821 112 28ft 0kts
21-Feb-16 13:47 32.734215 -117.204821 112 28ft 0kts
21-Feb-16 13:48 32.734215 -117.204821 112 28ft 0kts
21-Feb-16 13:49 32.734215 -117.204821 112 28ft 0kts
21-Feb-16 13:50 32.734215 -117.204821 112 28ft 0kts
21-Feb-16 13:51 32.734215 -117.204821 112 28ft 0kts
21-Feb-16 13:52 32.734215 -117.204821 112 28ft 0kts
21-Feb-16 13:53 32.734215 -117.204821 112 28ft 0kts
21-Feb-16 13:54 32.734215 -117.204821 112 28ft 0kts
21-Feb-16 13:55 32.734215 -117.204821 112 28ft 0kts
21-Feb-16 13:56 32.734215 -117.204821 112 28ft 0kts
21-Feb-16 13:57 32.734215 -117.204821 112 28ft 0kts
21-Feb-16 13:58 32.734215 -117.204821 112 28ft 0kts
21-Feb-16 13:59 32.734215 -117.204821 112 28ft 0kts
21-Feb-16 14:00 32.734215 -117.204821 112 28ft 0kts
21-Feb-16 14:01 32.734215 -117.204821 112 28ft 0kts
21-Feb-16 14:02 32.734215 -117.204821 112 28ft 0kts
21-Feb-16 14:03 32.734215 -117.204821 112 28ft 0kts
21-Feb-16 14:04 32.734215 -117.204821 112 28ft 0kts
21-Feb-16 14:05 32.734215 -117.204821 112 28ft 0kts
21-Feb-16 14:06 32.734215 -117.204821 112 28ft 0kts
21-Feb-16 14:07 32.734215 -117.204821 112 28ft 0kts
21-Feb-16 14:08 32.734264 -117.204966 105 28ft 1kts
21-Feb-16 14:09 32.734091 -117.205613 40 28ft 2kts
21-Feb-16 14:10 32.734680 -117.205397 22 28ft 6kts
21-Feb-16 14:11 32.734892 -117.205237 37 28ft 0kts
21-Feb-16 14:12 32.735606 -117.204409 49 28ft 12kts
21-Feb-16 14:13 32.735109 -117.200342 106 28ft 13kts
21-Feb-16 14:13 32.734187 -117.196505 105 28ft 15kts
21-Feb-16 14:14 32.732951 -117.191451 105 28ft 16kts
21-Feb-16 14:15 32.731619 -117.185912 105 28ft 18kts
21-Feb-16 14:17 32.730457 -117.181159 106 28ft 19kts
21-Feb-16 14:18 32.729535 -117.177389 104 28ft 0kts
21-Feb-16 14:19 32.729478 -117.177095 94 28ft 0kts
21-Feb-16 14:20 32.730411 -117.176617 285 28ft 15kts
21-Feb-16 14:21 32.740661 -117.218639 285 1545ft 184kts
21-Feb-16 14:22 32.754970 -117.285576 265 3732ft 222kts
21-Feb-16 14:23 32.703884 -117.304668 143 6667ft 250kts
21-Feb-16 14:24 32.653549 -117.251524 103 10074ft 260kts
21-Feb-16 14:25 32.638787 -117.163819 100 12687ft 299kts
21-Feb-16 14:26 32.623579 -117.065684 100 15810ft 314kts
21-Feb-16 14:27 32.612252 -116.962023 83 18581ft 328kts
21-Feb-16 14:28 32.622872 -116.853833 83 21147ft 341kts
21-Feb-16 14:29 32.634068 -116.741118 83 23469ft 354kts
21-Feb-16 14:30 32.645540 -116.623425 83 25564ft 366kts
21-Feb-16 14:31 32.657523 -116.499052 83 26549ft 408kts
21-Feb-16 14:32 32.670061 -116.367489 83 26768ft 467kts
21-Feb-16 14:33 32.684817 -116.210522 83 27000ft 488kts
21-Feb-16 14:34 32.699677 -116.050199 83 27000ft 489kts
21-Feb-16 14:35 32.714187 -115.891450 84 26999ft 489kts
21-Feb-16 14:36 32.728990 -115.732995 83 27000ft 489kts
21-Feb-16 14:37 32.743180 -115.573854 84 27000ft 489kts
21-Feb-16 14:38 32.751322 -115.412597 88 27001ft 489kts
21-Feb-16 14:39 32.754894 -115.252350 88 27000ft 489kts
21-Feb-16 14:40 32.758355 -115.091895 88 27000ft 489kts
21-Feb-16 14:41 32.761625 -114.930791 88 27000ft 489kts
21-Feb-16 14:42 32.765134 -114.771137 88 27000ft 489kts
21-Feb-16 14:43 32.768094 -114.609661 88 27000ft 489kts
21-Feb-16 14:44 32.770323 -114.447877 89 27000ft 489kts
21-Feb-16 14:45 32.772308 -114.286694 89 27000ft 489kts
21-Feb-16 14:46 32.774092 -114.125134 89 27000ft 489kts
21-Feb-16 14:47 32.786256 -113.964608 82 27000ft 489kts
21-Feb-16 14:48 32.803916 -113.805182 82 27000ft 489kts
21-Feb-16 14:49 32.845852 -113.654184 55 26998ft 489kts
21-Feb-16 14:50 32.933494 -113.531510 48 27000ft 489kts
21-Feb-16 14:51 33.023209 -113.409943 48 27000ft 489kts
21-Feb-16 14:52 33.112458 -113.289128 48 27000ft 489kts
21-Feb-16 14:53 33.201762 -113.167990 48 27000ft 489kts
21-Feb-16 14:54 33.268297 -113.032428 75 26998ft 489kts
21-Feb-16 14:55 33.278713 -112.872707 86 26996ft 485kts
21-Feb-16 14:56 33.317203 -112.726103 66 26183ft 467kts
21-Feb-16 14:57 33.344846 -112.577334 94 26092ft 467kts
21-Feb-16 14:58 33.296486 -112.439194 132 23782ft 454kts
21-Feb-16 14:59 33.190182 -112.368927 173 21941ft 442kts
21-Feb-16 15:00 33.110055 -112.387836 209 20385ft 433kts
21-Feb-16 15:01 33.048647 -112.490521 256 18194ft 419kts
21-Feb-16 15:02 33.021398 -112.615387 255 17583ft 373kts
21-Feb-16 15:03 33.021468 -112.733439 299 15455ft 365kts
21-Feb-16 15:04 33.103473 -112.788156 4 13403ft 356kts
21-Feb-16 15:05 33.169496 -112.726449 68 13474ft 321kts
21-Feb-16 15:06 33.226262 -112.655792 37 13432ft 287kts
21-Feb-16 15:07 33.282321 -112.606090 36 12931ft 253kts
21-Feb-16 15:08 33.336848 -112.558186 36 11168ft 271kts
21-Feb-16 15:09 33.395035 -112.506152 45 9104ft 294kts
21-Feb-16 15:10 33.424519 -112.435751 70 7008ft 272kts
21-Feb-16 15:11 33.428444 -112.355690 89 5649ft 228kts
21-Feb-16 15:12 33.428741 -112.281486 88 5226ft 227kts
21-Feb-16 15:13 33.431000 -112.207512 89 3669ft 235kts
21-Feb-16 15:14 33.431031 -112.136942 89 2567ft 183kts
21-Feb-16 15:15 33.431047 -112.087444 89 2187ft 152kts
21-Feb-16 15:16 33.431056 -112.039292 89 1383ft 149kts
21-Feb-16 15:17 33.431082 -112.005658 89 1145ft 21kts
21-Feb-16 15:18 33.432156 -112.000124 91 1145ft 21kts
21-Feb-16 15:19 33.433328 -111.997968 15 1145ft 4kts
21-Feb-16 15:19 33.433650 -111.997383 65 1145ft 0kts
21-Feb-16 15:21 33.433650 -111.997383 65 1145ft 0kts
21-Feb-16 15:22 33.426922 -112.018023 90 1145ft 0kts
21-Feb-16 15:23 33.426922 -112.018023 90 1145ft 0kts

Navigation Log

Ident Type
Flight plan parsing failed, navigation log unavailable